createdAt,value
2019-03-29T00:00:20.962Z,4.93
2019-03-29T00:00:52.211Z,4.93
2019-03-29T00:01:23.438Z,4.95
2019-03-29T00:01:54.637Z,4.95
2019-03-29T00:02:25.843Z,4.99
2019-03-29T00:02:57.037Z,5.12
2019-03-29T00:03:28.268Z,5.26
2019-03-29T00:04:00.263Z,5.42
2019-03-29T00:04:32.172Z,5.61
2019-03-29T00:05:03.383Z,5.77
2019-03-29T00:05:34.640Z,5.83
2019-03-29T00:06:05.834Z,5.87
2019-03-29T00:06:37.568Z,5.89
2019-03-29T00:07:08.849Z,5.94
2019-03-29T00:07:41.901Z,5.96
2019-03-29T00:08:13.039Z,5.96
2019-03-29T00:08:44.237Z,5.94
2019-03-29T00:09:15.459Z,5.93
2019-03-29T00:09:46.711Z,5.90
2019-03-29T00:10:17.927Z,5.85
2019-03-29T00:10:49.160Z,5.85
2019-03-29T00:11:20.374Z,5.90
2019-03-29T00:11:51.594Z,5.95
2019-03-29T00:12:22.856Z,5.98
2019-03-29T00:12:54.052Z,5.94
2019-03-29T00:13:25.247Z,5.90
2019-03-29T00:13:56.445Z,5.83
2019-03-29T00:14:27.675Z,5.74
2019-03-29T00:14:58.884Z,5.60
2019-03-29T00:15:30.089Z,5.45
2019-03-29T00:16:01.306Z,5.34
2019-03-29T00:16:32.514Z,5.27
2019-03-29T00:17:03.732Z,5.17
2019-03-29T00:17:35.013Z,5.09
2019-03-29T00:18:06.634Z,5.00
2019-03-29T00:18:37.853Z,4.93
2019-03-29T00:19:09.038Z,4.83
2019-03-29T00:19:40.300Z,4.80
2019-03-29T00:20:11.508Z,4.69
2019-03-29T00:20:42.709Z,4.61
2019-03-29T00:21:13.927Z,4.59
2019-03-29T00:21:45.196Z,4.51
2019-03-29T00:22:16.411Z,4.49
2019-03-29T00:22:47.615Z,4.46
2019-03-29T00:23:18.811Z,4.45
2019-03-29T00:23:50.013Z,4.44
2019-03-29T00:24:21.227Z,4.42
2019-03-29T00:24:52.437Z,4.39
2019-03-29T00:25:23.678Z,4.38
2019-03-29T00:25:54.901Z,4.33
2019-03-29T00:26:26.140Z,4.28
2019-03-29T00:26:57.335Z,4.26
2019-03-29T00:27:28.619Z,4.21
2019-03-29T00:27:59.846Z,4.18
2019-03-29T00:28:31.072Z,4.13
2019-03-29T00:29:03.094Z,4.11
2019-03-29T00:29:34.497Z,4.12
2019-03-29T00:30:05.813Z,4.08
2019-03-29T00:30:37.070Z,4.07
2019-03-29T00:31:08.281Z,4.01
2019-03-29T00:31:40.080Z,4.01
2019-03-29T00:32:11.344Z,3.99
2019-03-29T00:32:42.547Z,3.96
2019-03-29T00:33:13.764Z,3.95
2019-03-29T00:33:44.969Z,3.94
2019-03-29T00:34:17.113Z,3.94
2019-03-29T00:34:48.348Z,3.94
2019-03-29T00:35:19.547Z,3.95
2019-03-29T00:35:50.773Z,3.94
2019-03-29T00:36:22.041Z,3.92
2019-03-29T00:36:53.284Z,3.93
2019-03-29T00:37:24.537Z,3.92
2019-03-29T00:37:56.109Z,3.93
2019-03-29T00:38:27.458Z,3.98
2019-03-29T00:38:58.664Z,4.11
2019-03-29T00:39:29.893Z,4.26
2019-03-29T00:40:01.079Z,4.34
2019-03-29T00:40:32.536Z,4.40
2019-03-29T00:41:04.373Z,4.42
2019-03-29T00:41:35.586Z,4.46
2019-03-29T00:42:06.804Z,4.47
2019-03-29T00:42:38.014Z,4.46
2019-03-29T00:43:09.301Z,4.46
2019-03-29T00:43:40.533Z,4.45
2019-03-29T00:44:11.740Z,4.45
2019-03-29T00:44:42.968Z,4.44
2019-03-29T00:45:14.214Z,4.42
2019-03-29T00:45:45.829Z,4.42
2019-03-29T00:46:17.105Z,4.41
2019-03-29T00:46:48.324Z,4.39
2019-03-29T00:47:19.517Z,4.36
2019-03-29T00:47:50.766Z,4.37
2019-03-29T00:48:22.181Z,4.36
2019-03-29T00:48:53.342Z,4.37
2019-03-29T00:49:24.561Z,4.38
2019-03-29T00:49:55.831Z,4.39
2019-03-29T00:50:27.035Z,4.42
2019-03-29T00:50:59.004Z,4.47
2019-03-29T00:51:30.328Z,4.51
2019-03-29T00:52:01.560Z,4.54
2019-03-29T00:52:32.752Z,4.56
2019-03-29T00:53:03.958Z,4.57
2019-03-29T00:53:35.875Z,4.56
2019-03-29T00:54:07.351Z,4.55
2019-03-29T00:54:38.530Z,4.53
2019-03-29T00:55:09.785Z,4.52
2019-03-29T00:55:41.006Z,4.46
2019-03-29T00:56:15.219Z,4.43
2019-03-29T00:56:46.424Z,4.37
2019-03-29T00:57:17.649Z,4.33
2019-03-29T00:57:48.839Z,4.31
2019-03-29T00:58:20.045Z,4.30
2019-03-29T00:58:51.271Z,4.26
2019-03-29T00:59:22.496Z,4.25
2019-03-29T00:59:53.693Z,4.24
2019-03-29T01:00:24.997Z,4.22
2019-03-29T01:00:56.288Z,4.17
2019-03-29T01:01:27.514Z,4.13
2019-03-29T01:01:58.718Z,4.12
2019-03-29T01:02:29.943Z,4.09
2019-03-29T01:03:01.159Z,4.07
2019-03-29T01:03:32.527Z,4.04
2019-03-29T01:04:03.736Z,3.98
2019-03-29T01:04:34.968Z,3.88
2019-03-29T01:05:06.172Z,3.82
2019-03-29T01:05:37.431Z,3.78
2019-03-29T01:06:08.691Z,3.74
2019-03-29T01:06:39.907Z,3.70
2019-03-29T01:07:11.131Z,3.67
2019-03-29T01:07:42.381Z,3.63
2019-03-29T01:08:13.625Z,3.58
2019-03-29T01:08:44.852Z,3.55
2019-03-29T01:09:16.067Z,3.52
2019-03-29T01:09:47.291Z,3.49
2019-03-29T01:10:18.490Z,3.45
2019-03-29T01:10:49.693Z,3.43
2019-03-29T01:11:21.003Z,3.42
2019-03-29T01:11:52.253Z,3.38
2019-03-29T01:12:23.463Z,3.31
2019-03-29T01:12:54.670Z,3.26
2019-03-29T01:13:25.884Z,3.26
2019-03-29T01:13:57.091Z,3.22
2019-03-29T01:14:28.302Z,3.20
2019-03-29T01:14:59.511Z,3.16
2019-03-29T01:15:30.724Z,3.17
2019-03-29T01:16:02.130Z,3.16
2019-03-29T01:16:33.438Z,3.16
2019-03-29T01:17:04.635Z,3.13
2019-03-29T01:17:35.837Z,3.12
2019-03-29T01:18:07.054Z,3.12
2019-03-29T01:18:38.348Z,3.09
2019-03-29T01:19:09.573Z,3.08
2019-03-29T01:19:40.794Z,3.04
2019-03-29T01:20:12.003Z,3.01
2019-03-29T01:20:43.210Z,2.98
2019-03-29T01:21:14.413Z,2.97
2019-03-29T01:21:45.671Z,2.97
2019-03-29T01:22:16.876Z,2.93
2019-03-29T01:22:48.081Z,2.85
2019-03-29T01:23:19.321Z,2.82
2019-03-29T01:23:50.582Z,2.82
2019-03-29T01:24:22.544Z,2.79
2019-03-29T01:24:53.749Z,2.69
2019-03-29T01:25:25.033Z,2.64
2019-03-29T01:25:56.244Z,2.62
2019-03-29T01:26:27.467Z,2.61
2019-03-29T01:26:58.718Z,2.61
2019-03-29T01:27:29.940Z,2.60
2019-03-29T01:28:01.170Z,2.56
2019-03-29T01:28:33.661Z,2.52
2019-03-29T01:29:04.961Z,2.49
2019-03-29T01:29:36.185Z,2.47
2019-03-29T01:30:07.713Z,2.46
2019-03-29T01:30:38.951Z,2.44
2019-03-29T01:31:10.186Z,2.43
2019-03-29T01:31:41.351Z,2.41
2019-03-29T01:32:12.635Z,2.40
2019-03-29T01:32:43.867Z,2.39
2019-03-29T01:33:15.075Z,2.38
2019-03-29T01:33:46.311Z,2.35
2019-03-29T01:34:17.526Z,2.34
2019-03-29T01:34:48.738Z,2.38
2019-03-29T01:35:19.942Z,2.43
2019-03-29T01:35:51.265Z,2.51
2019-03-29T01:36:22.473Z,2.53
2019-03-29T01:36:53.878Z,2.55
2019-03-29T01:37:25.436Z,2.55
2019-03-29T01:37:56.710Z,2.52
2019-03-29T01:38:27.995Z,2.52
2019-03-29T01:38:59.212Z,2.59
2019-03-29T01:39:30.453Z,2.59
2019-03-29T01:40:01.672Z,2.65
2019-03-29T01:40:32.995Z,2.67
2019-03-29T01:41:04.204Z,2.65
2019-03-29T01:41:35.418Z,2.65
2019-03-29T01:42:06.625Z,2.66
2019-03-29T01:42:37.832Z,2.62
2019-03-29T01:43:09.363Z,2.64
2019-03-29T01:43:41.304Z,2.64
2019-03-29T01:44:12.509Z,2.66
2019-03-29T01:44:43.756Z,2.69
2019-03-29T01:45:14.954Z,2.72
2019-03-29T01:45:46.269Z,2.75
2019-03-29T01:46:17.498Z,2.76
2019-03-29T01:46:48.703Z,2.77
2019-03-29T01:47:19.926Z,2.77
2019-03-29T01:47:51.179Z,2.83
2019-03-29T01:48:23.113Z,2.91
2019-03-29T01:48:54.547Z,2.90
2019-03-29T01:49:25.762Z,2.98
2019-03-29T01:49:56.985Z,2.97
2019-03-29T01:50:28.211Z,3.00
2019-03-29T01:50:59.434Z,2.98
2019-03-29T01:51:30.663Z,2.96
2019-03-29T01:52:01.924Z,2.89
2019-03-29T01:52:33.114Z,2.85
2019-03-29T01:53:04.330Z,2.80
2019-03-29T01:53:35.583Z,2.80
2019-03-29T01:54:06.790Z,2.78
2019-03-29T01:54:38.001Z,2.72
2019-03-29T01:55:09.212Z,2.64
2019-03-29T01:55:40.409Z,2.56
2019-03-29T01:56:11.622Z,2.57
2019-03-29T01:56:42.834Z,2.58
2019-03-29T01:57:14.048Z,2.56
2019-03-29T01:57:45.315Z,2.54
2019-03-29T01:58:16.521Z,2.47
2019-03-29T01:58:47.797Z,2.41
2019-03-29T01:59:18.992Z,2.39
2019-03-29T01:59:50.202Z,2.39
2019-03-29T02:00:21.473Z,2.36
2019-03-29T02:00:52.669Z,2.32
2019-03-29T02:01:23.892Z,2.29
2019-03-29T02:01:55.285Z,2.26
2019-03-29T02:02:26.495Z,2.27
2019-03-29T02:02:57.859Z,2.26
2019-03-29T02:03:29.101Z,2.27
2019-03-29T02:04:00.368Z,2.23
2019-03-29T02:04:31.562Z,2.22
2019-03-29T02:05:02.784Z,2.20
2019-03-29T02:05:34.011Z,2.19
2019-03-29T02:06:05.221Z,2.15
2019-03-29T02:06:36.452Z,2.12
2019-03-29T02:07:07.680Z,2.11
2019-03-29T02:07:38.958Z,2.10
2019-03-29T02:08:10.183Z,2.08
2019-03-29T02:08:41.399Z,2.06
2019-03-29T02:09:12.652Z,2.01
2019-03-29T02:09:43.859Z,1.95
2019-03-29T02:10:15.060Z,1.92
2019-03-29T02:10:46.267Z,1.89
2019-03-29T02:11:17.481Z,1.84
2019-03-29T02:11:48.756Z,1.82
2019-03-29T02:12:19.957Z,1.79
2019-03-29T02:12:51.177Z,1.75
2019-03-29T02:13:22.401Z,1.74
2019-03-29T02:13:53.603Z,1.72
2019-03-29T02:14:24.826Z,1.75
2019-03-29T02:14:56.035Z,1.74
2019-03-29T02:15:27.258Z,1.72
2019-03-29T02:15:58.477Z,1.72
2019-03-29T02:16:29.933Z,1.71
2019-03-29T02:17:01.231Z,1.70
2019-03-29T02:17:32.432Z,1.71
2019-03-29T02:18:03.706Z,1.70
2019-03-29T02:18:34.912Z,1.67
2019-03-29T02:19:06.279Z,1.70
2019-03-29T02:19:37.555Z,1.70
2019-03-29T02:20:08.762Z,1.69
2019-03-29T02:20:39.968Z,1.71
2019-03-29T02:21:11.207Z,1.71
2019-03-29T02:21:43.055Z,1.70
2019-03-29T02:22:14.543Z,1.67
2019-03-29T02:22:45.824Z,1.68
2019-03-29T02:23:17.026Z,1.65
2019-03-29T02:23:48.223Z,1.64
2019-03-29T02:24:19.443Z,1.64
2019-03-29T02:24:50.685Z,1.66
2019-03-29T02:25:21.985Z,1.64
2019-03-29T02:25:53.197Z,1.64
2019-03-29T02:26:24.451Z,1.62
2019-03-29T02:26:55.659Z,1.60
2019-03-29T02:27:27.190Z,1.63
2019-03-29T02:27:58.608Z,1.63
2019-03-29T02:28:29.825Z,1.64
2019-03-29T02:29:01.038Z,1.63
2019-03-29T02:29:32.258Z,1.60
2019-03-29T02:30:04.578Z,1.58
2019-03-29T02:30:37.395Z,1.59
2019-03-29T02:31:08.607Z,1.58
2019-03-29T02:31:42.134Z,1.59
2019-03-29T02:32:12.767Z,1.63
2019-03-29T02:32:43.974Z,1.62
2019-03-29T02:33:15.242Z,1.63
2019-03-29T02:33:47.675Z,1.63
2019-03-29T02:34:19.413Z,1.63
2019-03-29T02:34:50.631Z,1.63
2019-03-29T02:35:21.848Z,1.62
2019-03-29T02:35:53.061Z,1.62
2019-03-29T02:36:24.297Z,1.64
2019-03-29T02:36:55.582Z,1.65
2019-03-29T02:37:26.761Z,1.64
2019-03-29T02:37:57.986Z,1.64
2019-03-29T02:38:29.230Z,1.64
2019-03-29T02:39:00.466Z,1.66
2019-03-29T02:39:31.743Z,1.64
2019-03-29T02:40:02.978Z,1.66
2019-03-29T02:40:34.199Z,1.66
2019-03-29T02:41:05.411Z,1.68
2019-03-29T02:41:36.685Z,1.72
2019-03-29T02:42:07.914Z,1.76
2019-03-29T02:42:39.123Z,1.83
2019-03-29T02:43:11.107Z,1.91
2019-03-29T02:43:42.424Z,1.92
2019-03-29T02:44:13.630Z,1.94
2019-03-29T02:44:44.833Z,1.91
2019-03-29T02:45:16.027Z,1.89
2019-03-29T02:45:47.236Z,1.86
2019-03-29T02:46:18.491Z,1.85
2019-03-29T02:46:49.849Z,1.82
2019-03-29T02:47:21.683Z,1.81
2019-03-29T02:47:53.304Z,1.80
2019-03-29T02:48:24.514Z,1.79
2019-03-29T02:48:55.713Z,1.80
2019-03-29T02:49:26.933Z,1.78
2019-03-29T02:49:58.170Z,1.76
2019-03-29T02:50:29.398Z,1.74
2019-03-29T02:51:00.681Z,1.72
2019-03-29T02:51:32.911Z,1.72
2019-03-29T02:52:04.370Z,1.71
2019-03-29T02:52:35.583Z,1.68
2019-03-29T02:53:06.843Z,1.68
2019-03-29T02:53:38.046Z,1.70
2019-03-29T02:54:09.270Z,1.70
2019-03-29T02:54:40.522Z,1.68
2019-03-29T02:55:11.757Z,1.69
2019-03-29T02:55:42.957Z,1.69
2019-03-29T02:56:14.239Z,1.70
2019-03-29T02:56:45.489Z,1.72
2019-03-29T02:57:16.713Z,1.73
2019-03-29T02:57:47.904Z,1.73
2019-03-29T02:58:19.197Z,1.72
2019-03-29T02:58:50.427Z,1.73
2019-03-29T02:59:21.661Z,1.72
2019-03-29T02:59:52.904Z,1.72
2019-03-29T03:00:24.130Z,1.71
2019-03-29T03:00:55.372Z,1.69
2019-03-29T03:01:26.538Z,1.68
2019-03-29T03:01:57.753Z,1.66
2019-03-29T03:02:28.961Z,1.65
2019-03-29T03:03:00.160Z,1.67
2019-03-29T03:03:31.438Z,1.66
2019-03-29T03:04:02.655Z,1.65
2019-03-29T03:04:33.842Z,1.66
2019-03-29T03:05:05.085Z,1.64
2019-03-29T03:05:36.295Z,1.68
2019-03-29T03:06:07.499Z,1.74
2019-03-29T03:06:38.714Z,1.77
2019-03-29T03:07:09.932Z,1.78
2019-03-29T03:07:41.142Z,1.78
2019-03-29T03:08:12.343Z,1.78
2019-03-29T03:08:43.583Z,1.78
2019-03-29T03:09:15.029Z,1.78
2019-03-29T03:09:46.291Z,1.74
2019-03-29T03:10:17.527Z,1.73
2019-03-29T03:10:48.732Z,1.72
2019-03-29T03:11:19.950Z,1.71
2019-03-29T03:11:51.162Z,1.73
2019-03-29T03:12:22.378Z,1.75
2019-03-29T03:12:53.587Z,1.76
2019-03-29T03:13:24.828Z,1.73
2019-03-29T03:13:56.050Z,1.73
2019-03-29T03:14:27.265Z,1.72
2019-03-29T03:15:00.513Z,1.72
2019-03-29T03:15:31.739Z,1.71
2019-03-29T03:16:02.955Z,1.69
2019-03-29T03:16:34.182Z,1.67
2019-03-29T03:17:05.424Z,1.64
2019-03-29T03:17:36.614Z,1.63
2019-03-29T03:18:07.827Z,1.63
2019-03-29T03:18:39.041Z,1.65
2019-03-29T03:19:10.243Z,1.64
2019-03-29T03:19:41.512Z,1.65
2019-03-29T03:20:15.509Z,1.65
2019-03-29T03:20:45.669Z,1.65
2019-03-29T03:21:16.905Z,1.64
2019-03-29T03:21:48.098Z,1.64
2019-03-29T03:22:19.312Z,1.61
2019-03-29T03:22:50.573Z,1.59
2019-03-29T03:23:21.861Z,1.61
2019-03-29T03:23:53.093Z,1.63
2019-03-29T03:24:24.357Z,1.62
2019-03-29T03:24:55.626Z,1.59
2019-03-29T03:25:26.849Z,1.59
2019-03-29T03:25:58.080Z,1.57
2019-03-29T03:26:29.304Z,1.54
2019-03-29T03:27:00.527Z,1.50
2019-03-29T03:27:31.768Z,1.50
2019-03-29T03:28:03.003Z,1.48
2019-03-29T03:28:34.237Z,1.48
2019-03-29T03:29:05.452Z,1.48
2019-03-29T03:29:36.701Z,1.47
2019-03-29T03:30:07.920Z,1.46
2019-03-29T03:30:39.181Z,1.46
2019-03-29T03:31:10.442Z,1.47
2019-03-29T03:31:41.662Z,1.50
2019-03-29T03:32:12.901Z,1.49
2019-03-29T03:32:44.160Z,1.49
2019-03-29T03:33:15.403Z,1.48
2019-03-29T03:33:46.595Z,1.48
2019-03-29T03:34:17.792Z,1.50
2019-03-29T03:34:49.038Z,1.48
2019-03-29T03:35:20.253Z,1.49
2019-03-29T03:35:51.481Z,1.49
2019-03-29T03:36:22.705Z,1.48
2019-03-29T03:36:53.895Z,1.48
2019-03-29T03:37:25.103Z,1.48
2019-03-29T03:37:56.305Z,1.46
2019-03-29T03:38:27.539Z,1.45
2019-03-29T03:38:58.743Z,1.46
2019-03-29T03:39:32.243Z,1.49
2019-03-29T03:40:02.939Z,1.50
2019-03-29T03:40:34.143Z,1.52
2019-03-29T03:41:05.347Z,1.54
2019-03-29T03:41:36.553Z,1.54
2019-03-29T03:42:07.761Z,1.54
2019-03-29T03:42:38.974Z,1.55
2019-03-29T03:43:10.186Z,1.55
2019-03-29T03:43:41.415Z,1.53
2019-03-29T03:44:12.626Z,1.53
2019-03-29T03:44:43.846Z,1.52
2019-03-29T03:45:15.135Z,1.53
2019-03-29T03:45:46.320Z,1.51
2019-03-29T03:46:17.521Z,1.50
2019-03-29T03:46:48.750Z,1.52
2019-03-29T03:47:19.953Z,1.50
2019-03-29T03:47:51.175Z,1.49
2019-03-29T03:48:22.400Z,1.49
2019-03-29T03:48:53.661Z,1.47
2019-03-29T03:49:24.914Z,1.44
2019-03-29T03:50:00.518Z,1.44
2019-03-29T03:50:29.178Z,1.43
2019-03-29T03:51:00.390Z,1.41
2019-03-29T03:51:31.608Z,1.40
2019-03-29T03:52:02.829Z,1.36
2019-03-29T03:52:34.069Z,1.34
2019-03-29T03:53:05.302Z,1.34
2019-03-29T03:53:36.505Z,1.34
2019-03-29T03:54:07.720Z,1.29
2019-03-29T03:54:38.938Z,1.29
2019-03-29T03:55:10.154Z,1.27
2019-03-29T03:55:41.397Z,1.26
2019-03-29T03:56:12.596Z,1.25
2019-03-29T03:56:43.817Z,1.24
2019-03-29T03:57:15.019Z,1.24
2019-03-29T03:57:46.287Z,1.23
2019-03-29T03:58:17.497Z,1.23
2019-03-29T03:58:48.708Z,1.26
2019-03-29T03:59:19.946Z,1.28
2019-03-29T03:59:51.185Z,1.28
2019-03-29T04:00:22.404Z,1.31
2019-03-29T04:00:53.638Z,1.32
2019-03-29T04:01:24.841Z,1.31
2019-03-29T04:01:56.062Z,1.32
2019-03-29T04:02:27.320Z,1.34
2019-03-29T04:02:58.537Z,1.31
2019-03-29T04:03:29.793Z,1.31
2019-03-29T04:04:01.005Z,1.31
2019-03-29T04:04:32.214Z,1.31
2019-03-29T04:05:03.433Z,1.30
2019-03-29T04:05:34.746Z,1.30
2019-03-29T04:06:05.954Z,1.30
2019-03-29T04:06:37.170Z,1.30
2019-03-29T04:07:08.373Z,1.31
2019-03-29T04:07:39.586Z,1.31
2019-03-29T04:08:10.799Z,1.30
2019-03-29T04:08:42.094Z,1.29
2019-03-29T04:09:13.318Z,1.30
2019-03-29T04:09:50.140Z,1.31
2019-03-29T04:10:17.548Z,1.31
2019-03-29T04:10:48.930Z,1.35
2019-03-29T04:11:20.189Z,1.35
2019-03-29T04:11:51.402Z,1.36
2019-03-29T04:12:22.621Z,1.36
2019-03-29T04:12:53.828Z,1.36
2019-03-29T04:13:25.037Z,1.36
2019-03-29T04:13:56.249Z,1.35
2019-03-29T04:14:27.448Z,1.35
2019-03-29T04:14:58.678Z,1.36
2019-03-29T04:15:29.916Z,1.37
2019-03-29T04:16:01.153Z,1.37
2019-03-29T04:16:32.361Z,1.37
2019-03-29T04:17:03.565Z,1.36
2019-03-29T04:17:34.800Z,1.37
2019-03-29T04:18:06.000Z,1.40
2019-03-29T04:18:37.231Z,1.43
2019-03-29T04:19:08.492Z,1.46
2019-03-29T04:19:39.742Z,1.47
2019-03-29T04:20:10.949Z,1.48
2019-03-29T04:20:42.193Z,1.51
2019-03-29T04:21:13.444Z,1.50
2019-03-29T04:21:44.660Z,1.53
2019-03-29T04:22:15.867Z,1.57
2019-03-29T04:22:47.127Z,1.59
2019-03-29T04:23:18.448Z,1.63
2019-03-29T04:23:49.681Z,1.72
2019-03-29T04:24:20.897Z,1.84
2019-03-29T04:24:52.111Z,2.02
2019-03-29T04:25:23.380Z,0.88
2019-03-29T04:25:54.603Z,2.03
2019-03-29T04:26:25.806Z,2.03
2019-03-29T04:26:57.011Z,2.05
2019-03-29T04:27:28.218Z,2.12
2019-03-29T04:27:59.450Z,2.21
2019-03-29T04:28:30.660Z,2.29
2019-03-29T04:29:04.982Z,2.40
2019-03-29T04:29:34.903Z,2.50
2019-03-29T04:30:06.244Z,2.63
2019-03-29T04:30:37.468Z,2.72
2019-03-29T04:31:08.744Z,2.82
2019-03-29T04:31:39.956Z,2.79
2019-03-29T04:32:11.177Z,2.85
2019-03-29T04:32:42.530Z,2.03
2019-03-29T04:33:13.745Z,2.98
2019-03-29T04:33:44.982Z,3.06
2019-03-29T04:34:16.214Z,3.15
2019-03-29T04:34:47.443Z,3.24
2019-03-29T04:35:18.716Z,3.33
2019-03-29T04:35:49.910Z,3.42
2019-03-29T04:36:21.177Z,3.57
2019-03-29T04:36:52.401Z,3.71
2019-03-29T04:37:23.616Z,3.83
2019-03-29T04:37:54.852Z,3.95
2019-03-29T04:38:26.062Z,4.03
2019-03-29T04:38:57.276Z,4.14
2019-03-29T04:39:28.496Z,4.18
2019-03-29T04:40:07.762Z,4.24
2019-03-29T04:40:32.662Z,4.26
2019-03-29T04:41:03.837Z,4.37
2019-03-29T04:41:35.125Z,4.43
2019-03-29T04:42:06.376Z,4.54
2019-03-29T04:42:37.582Z,4.63
2019-03-29T04:43:08.808Z,4.73
2019-03-29T04:43:40.017Z,4.78
2019-03-29T04:44:11.239Z,4.83
2019-03-29T04:44:42.447Z,4.90
2019-03-29T04:45:13.659Z,4.87
2019-03-29T04:45:44.868Z,4.86
2019-03-29T04:46:16.055Z,4.92
2019-03-29T04:46:47.305Z,4.99
2019-03-29T04:47:18.565Z,4.99
2019-03-29T04:47:49.842Z,5.03
2019-03-29T04:48:21.055Z,5.08
2019-03-29T04:48:52.264Z,5.01
2019-03-29T04:49:23.529Z,5.05
2019-03-29T04:49:54.778Z,5.19
2019-03-29T04:50:25.967Z,5.33
2019-03-29T04:50:57.178Z,5.46
2019-03-29T04:51:28.388Z,5.55
2019-03-29T04:51:59.592Z,5.62
2019-03-29T04:52:30.852Z,5.71
2019-03-29T04:53:02.085Z,5.81
2019-03-29T04:53:33.301Z,5.91
2019-03-29T04:54:04.509Z,6.03
2019-03-29T04:54:35.759Z,6.14
2019-03-29T04:55:06.988Z,6.23
2019-03-29T04:55:38.192Z,6.32
2019-03-29T04:56:09.408Z,6.34
2019-03-29T04:56:40.618Z,6.35
2019-03-29T04:57:11.880Z,6.26
2019-03-29T04:57:43.149Z,5.97
2019-03-29T04:58:14.333Z,6.00
2019-03-29T04:58:45.570Z,6.03
2019-03-29T04:59:16.775Z,6.08
2019-03-29T04:59:48.000Z,5.92
2019-03-29T05:00:19.206Z,5.86
2019-03-29T05:00:50.432Z,5.75
2019-03-29T05:01:21.649Z,5.73
2019-03-29T05:01:52.864Z,5.74
2019-03-29T05:02:24.076Z,5.83
2019-03-29T05:02:55.326Z,5.94
2019-03-29T05:03:26.579Z,6.01
2019-03-29T05:03:57.790Z,5.97
2019-03-29T05:04:29.002Z,5.85
2019-03-29T05:05:00.415Z,5.85
2019-03-29T05:05:31.606Z,5.90
2019-03-29T05:06:02.818Z,5.91
2019-03-29T05:06:34.012Z,5.97
2019-03-29T05:07:05.235Z,6.04
2019-03-29T05:07:37.156Z,6.15
2019-03-29T05:08:08.554Z,6.27
2019-03-29T05:08:39.764Z,6.28
2019-03-29T05:09:11.011Z,6.29
2019-03-29T05:09:42.212Z,6.32
2019-03-29T05:10:21.259Z,6.45
2019-03-29T05:10:46.393Z,6.51
2019-03-29T05:11:17.592Z,6.42
2019-03-29T05:11:48.797Z,6.44
2019-03-29T05:12:20.026Z,6.47
2019-03-29T05:12:51.251Z,6.45
2019-03-29T05:13:22.499Z,6.19
2019-03-29T05:13:53.711Z,6.09
2019-03-29T05:14:24.929Z,5.99
2019-03-29T05:14:56.144Z,6.07
2019-03-29T05:15:27.358Z,6.07
2019-03-29T05:15:58.601Z,6.13
2019-03-29T05:16:29.814Z,6.30
2019-03-29T05:17:01.023Z,6.39
2019-03-29T05:17:32.280Z,6.49
2019-03-29T05:18:03.482Z,6.48
2019-03-29T05:18:34.681Z,6.46
2019-03-29T05:19:05.884Z,6.53
2019-03-29T05:19:37.125Z,6.58
2019-03-29T05:20:08.313Z,6.67
2019-03-29T05:20:39.578Z,6.68
2019-03-29T05:21:10.805Z,6.63
2019-03-29T05:21:42.056Z,6.71
2019-03-29T05:22:13.277Z,6.71
2019-03-29T05:22:44.471Z,6.70
2019-03-29T05:23:15.721Z,6.68
2019-03-29T05:23:46.968Z,6.66
2019-03-29T05:24:18.167Z,6.66
2019-03-29T05:24:49.397Z,6.74
2019-03-29T05:25:20.661Z,6.80
2019-03-29T05:25:51.856Z,6.80
2019-03-29T05:26:25.456Z,6.80
2019-03-29T05:26:56.101Z,6.66
2019-03-29T05:27:27.272Z,6.45
2019-03-29T05:27:58.476Z,6.36
2019-03-29T05:28:29.716Z,6.37
2019-03-29T05:29:00.937Z,6.35
2019-03-29T05:29:32.265Z,6.21
2019-03-29T05:30:03.436Z,6.19
2019-03-29T05:30:34.721Z,6.25
2019-03-29T05:31:05.928Z,6.32
2019-03-29T05:31:37.149Z,6.36
2019-03-29T05:32:08.498Z,6.52
2019-03-29T05:32:39.741Z,6.65
2019-03-29T05:33:10.953Z,6.71
2019-03-29T05:33:42.208Z,6.82
2019-03-29T05:34:13.415Z,6.84
2019-03-29T05:34:44.622Z,6.88
2019-03-29T05:35:15.827Z,6.80
2019-03-29T05:35:47.053Z,6.78
2019-03-29T05:36:18.281Z,6.81
2019-03-29T05:36:49.490Z,6.73
2019-03-29T05:37:20.725Z,6.61
2019-03-29T05:37:52.026Z,6.54
2019-03-29T05:38:23.232Z,6.46
2019-03-29T05:38:54.460Z,6.44
2019-03-29T05:39:25.651Z,6.45
2019-03-29T05:39:56.846Z,6.39
2019-03-29T05:40:34.989Z,6.33
2019-03-29T05:41:01.081Z,6.45
2019-03-29T05:41:32.294Z,6.48
2019-03-29T05:42:03.510Z,6.53
2019-03-29T05:42:34.845Z,6.54
2019-03-29T05:43:06.032Z,6.56
2019-03-29T05:43:37.294Z,6.54
2019-03-29T05:44:08.567Z,6.56
2019-03-29T05:44:40.924Z,6.48
2019-03-29T05:45:12.260Z,6.43
2019-03-29T05:45:43.502Z,6.43
2019-03-29T05:46:14.711Z,6.39
2019-03-29T05:46:45.920Z,6.42
2019-03-29T05:47:17.158Z,6.33
2019-03-29T05:47:48.427Z,6.35
2019-03-29T05:48:19.666Z,6.38
2019-03-29T05:48:50.916Z,6.45
2019-03-29T05:49:22.126Z,6.50
2019-03-29T05:49:53.581Z,6.64
2019-03-29T05:50:24.771Z,6.73
2019-03-29T05:50:55.974Z,6.77
2019-03-29T05:51:27.190Z,6.86
2019-03-29T05:51:58.416Z,6.89
2019-03-29T05:52:29.634Z,6.81
2019-03-29T05:53:00.919Z,6.70
2019-03-29T05:53:32.129Z,6.76
2019-03-29T05:54:03.342Z,6.85
2019-03-29T05:54:34.546Z,6.90
2019-03-29T05:55:05.781Z,6.87
2019-03-29T05:55:37.113Z,6.89
2019-03-29T05:56:08.316Z,6.91
2019-03-29T05:56:39.529Z,6.86
2019-03-29T05:57:10.733Z,6.82
2019-03-29T05:57:41.928Z,6.82
2019-03-29T05:58:13.222Z,6.82
2019-03-29T05:58:44.472Z,6.95
2019-03-29T05:59:15.680Z,7.09
2019-03-29T05:59:46.894Z,7.20
2019-03-29T06:00:18.094Z,7.36
2019-03-29T06:00:49.302Z,7.44
2019-03-29T06:01:20.509Z,7.59
2019-03-29T06:01:51.752Z,7.67
2019-03-29T06:02:22.953Z,7.78
2019-03-29T06:02:54.248Z,7.93
2019-03-29T06:03:25.460Z,8.05
2019-03-29T06:03:56.766Z,8.17
2019-03-29T06:04:27.989Z,8.26
2019-03-29T06:04:59.206Z,8.25
2019-03-29T06:05:30.449Z,8.19
2019-03-29T06:06:01.691Z,8.13
2019-03-29T06:06:32.901Z,8.12
2019-03-29T06:07:04.264Z,8.11
2019-03-29T06:07:35.502Z,7.95
2019-03-29T06:08:06.713Z,7.87
2019-03-29T06:08:37.916Z,7.89
2019-03-29T06:09:09.154Z,7.83
2019-03-29T06:09:40.460Z,7.71
2019-03-29T06:10:11.649Z,7.61
2019-03-29T06:10:48.835Z,7.60
2019-03-29T06:11:15.809Z,7.61
2019-03-29T06:11:47.011Z,7.60
2019-03-29T06:12:18.299Z,7.53
2019-03-29T06:12:49.518Z,7.55
2019-03-29T06:13:20.797Z,7.61
2019-03-29T06:13:52.018Z,7.67
2019-03-29T06:14:23.238Z,7.73
2019-03-29T06:14:54.434Z,7.76
2019-03-29T06:15:25.647Z,7.80
2019-03-29T06:15:56.863Z,7.80
2019-03-29T06:16:38.269Z,7.72
2019-03-29T06:17:01.057Z,7.61
2019-03-29T06:17:32.386Z,7.48
2019-03-29T06:18:03.598Z,7.48
2019-03-29T06:18:34.843Z,7.53
2019-03-29T06:19:06.047Z,7.53
2019-03-29T06:19:37.297Z,7.52
2019-03-29T06:20:08.503Z,7.46
2019-03-29T06:20:39.746Z,7.45
2019-03-29T06:21:10.972Z,7.48
2019-03-29T06:21:42.189Z,7.45
2019-03-29T06:22:13.443Z,7.50
2019-03-29T06:22:44.693Z,7.48
2019-03-29T06:23:15.899Z,7.49
2019-03-29T06:23:47.103Z,7.53
2019-03-29T06:24:18.312Z,7.46
2019-03-29T06:24:49.577Z,7.37
2019-03-29T06:25:20.848Z,7.31
2019-03-29T06:25:52.045Z,7.35
2019-03-29T06:26:23.484Z,7.41
2019-03-29T06:26:54.717Z,7.44
2019-03-29T06:27:25.935Z,7.51
2019-03-29T06:27:57.130Z,7.57
2019-03-29T06:28:29.975Z,7.61
2019-03-29T06:29:01.448Z,7.60
2019-03-29T06:29:32.736Z,7.63
2019-03-29T06:30:03.984Z,7.67
2019-03-29T06:30:35.210Z,7.74
2019-03-29T06:31:06.421Z,7.79
2019-03-29T06:31:37.648Z,7.81
2019-03-29T06:32:08.854Z,7.77
2019-03-29T06:32:40.106Z,7.83
2019-03-29T06:33:11.330Z,7.88
2019-03-29T06:33:44.528Z,7.91
2019-03-29T06:34:15.481Z,7.91
2019-03-29T06:34:46.685Z,7.91
2019-03-29T06:35:17.905Z,7.93
2019-03-29T06:35:49.104Z,7.99
2019-03-29T06:36:20.339Z,8.05
2019-03-29T06:36:51.569Z,8.09
2019-03-29T06:37:22.791Z,8.13
2019-03-29T06:37:54.090Z,8.13
2019-03-29T06:38:25.355Z,8.09
2019-03-29T06:38:56.574Z,8.05
2019-03-29T06:39:27.776Z,7.96
2019-03-29T06:39:58.992Z,8.02
2019-03-29T06:40:30.251Z,8.09
2019-03-29T06:41:03.161Z,8.13
2019-03-29T06:41:34.394Z,8.20
2019-03-29T06:42:05.602Z,8.27
2019-03-29T06:42:36.807Z,8.41
2019-03-29T06:43:08.052Z,8.48
2019-03-29T06:43:39.344Z,8.52
2019-03-29T06:44:10.569Z,8.56
2019-03-29T06:44:44.338Z,8.57
2019-03-29T06:45:14.738Z,8.63
2019-03-29T06:45:48.170Z,8.69
2019-03-29T06:46:18.935Z,8.70
2019-03-29T06:46:50.140Z,8.70
2019-03-29T06:47:21.362Z,8.64
2019-03-29T06:47:52.574Z,8.67
2019-03-29T06:48:23.904Z,8.68
2019-03-29T06:48:55.102Z,8.74
2019-03-29T06:49:26.310Z,8.78
2019-03-29T06:49:57.923Z,8.85
2019-03-29T06:50:29.135Z,8.95
2019-03-29T06:51:00.429Z,9.08
2019-03-29T06:51:31.641Z,9.10
2019-03-29T06:52:02.835Z,9.14
2019-03-29T06:52:34.047Z,9.18
2019-03-29T06:53:05.277Z,9.21
2019-03-29T06:53:36.505Z,9.22
2019-03-29T06:54:07.882Z,9.26
2019-03-29T06:54:39.098Z,9.19
2019-03-29T06:55:10.323Z,9.20
2019-03-29T06:55:41.527Z,9.17
2019-03-29T06:56:12.756Z,9.13
2019-03-29T06:56:43.980Z,9.24